sensor_id;sensor_type;location;lat;lon;timestamp;pressure;altitude;pressure_sealevel;temperature;humidity
38718;BME280;24468;52.128;9.278;2023-12-20T00:00:40;100304.81;;;8.31;100.00
38718;BME280;24468;52.128;9.278;2023-12-20T00:03:06;100298.09;;;8.19;100.00
38718;BME280;24468;52.128;9.278;2023-12-20T00:05:31;100297.72;;;8.52;100.00
38718;BME280;24468;52.128;9.278;2023-12-20T00:07:57;100307.44;;;8.33;100.00
38718;BME280;24468;52.128;9.278;2023-12-20T00:10:23;100314.53;;;8.59;100.00
38718;BME280;24468;52.128;9.278;2023-12-20T00:12:48;100310.06;;;8.34;100.00
38718;BME280;24468;52.128;9.278;2023-12-20T00:15:14;100317.75;;;8.20;100.00
38718;BME280;24468;52.128;9.278;2023-12-20T00:17:40;100314.72;;;8.06;100.00
38718;BME280;24468;52.128;9.278;2023-12-20T00:20:06;100303.25;;;8.26;100.00
38718;BME280;24468;52.128;9.278;2023-12-20T00:22:32;100322.59;;;8.12;100.00
38718;BME280;24468;52.128;9.278;2023-12-20T00:24:57;100342.78;;;7.98;100.00
38718;BME280;24468;52.128;9.278;2023-12-20T00:27:23;100339.84;;;8.05;100.00
38718;BME280;24468;52.128;9.278;2023-12-20T00:29:49;100337.88;;;8.10;100.00
38718;BME280;24468;52.128;9.278;2023-12-20T00:32:16;100348.28;;;7.95;100.00
38718;BME280;24468;52.128;9.278;2023-12-20T00:34:42;100344.28;;;8.06;100.00
38718;BME280;24468;52.128;9.278;2023-12-20T00:37:08;100349.16;;;7.71;100.00
38718;BME280;24468;52.128;9.278;2023-12-20T00:39:34;100340.38;;;8.14;100.00
38718;BME280;24468;52.128;9.278;2023-12-20T00:41:59;100348.28;;;7.95;100.00
38718;BME280;24468;52.128;9.278;2023-12-20T00:44:25;100347.44;;;7.93;100.00
38718;BME280;24468;52.128;9.278;2023-12-20T00:46:50;100342.66;;;8.25;100.00
38718;BME280;24468;52.128;9.278;2023-12-20T00:49:16;100359.78;;;7.99;100.00
38718;BME280;24468;52.128;9.278;2023-12-20T00:51:42;100357.31;;;7.93;100.00
38718;BME280;24468;52.128;9.278;2023-12-20T00:54:07;100350.38;;;8.11;100.00
38718;BME280;24468;52.128;9.278;2023-12-20T00:56:33;100356.41;;;7.92;100.00
38718;BME280;24468;52.128;9.278;2023-12-20T00:58:59;100347.88;;;7.81;100.00
38718;BME280;24468;52.128;9.278;2023-12-20T01:01:24;100360.50;;;7.79;100.00
38718;BME280;24468;52.128;9.278;2023-12-20T01:03:50;100356.38;;;7.69;100.00
38718;BME280;24468;52.128;9.278;2023-12-20T01:06:16;100363.47;;;7.71;100.00
38718;BME280;24468;52.128;9.278;2023-12-20T01:08:42;100354.47;;;7.72;100.00
38718;BME280;24468;52.128;9.278;2023-12-20T01:11:08;100355.00;;;7.57;100.00
38718;BME280;24468;52.128;9.278;2023-12-20T01:13:33;100351.38;;;7.58;100.00
38718;BME280;24468;52.128;9.278;2023-12-20T01:15:59;100352.44;;;7.79;100.00
38718;BME280;24468;52.128;9.278;2023-12-20T01:18:24;100354.81;;;7.87;100.00
38718;BME280;24468;52.128;9.278;2023-12-20T01:20:50;100341.19;;;7.68;100.00
38718;BME280;24468;52.128;9.278;2023-12-20T01:23:16;100340.00;;;7.76;100.00
38718;BME280;24468;52.128;9.278;2023-12-20T01:25:41;100341.97;;;7.96;100.00
38718;BME280;24468;52.128;9.278;2023-12-20T01:28:07;100332.34;;;7.66;100.00
38718;BME280;24468;52.128;9.278;2023-12-20T01:30:33;100346.56;;;7.93;100.00
38718;BME280;24468;52.128;9.278;2023-12-20T01:33:00;100358.09;;;7.71;100.00
38718;BME280;24468;52.128;9.278;2023-12-20T01:35:26;100361.41;;;7.78;100.00
38718;BME280;24468;52.128;9.278;2023-12-20T01:37:52;100367.72;;;8.02;100.00
38718;BME280;24468;52.128;9.278;2023-12-20T01:40:22;100368.94;;;7.93;100.00
38718;BME280;24468;52.128;9.278;2023-12-20T01:42:47;100367.25;;;7.66;100.00
38718;BME280;24468;52.128;9.278;2023-12-20T01:45:23;100363.34;;;7.49;100.00
38718;BME280;24468;52.128;9.278;2023-12-20T01:47:48;100359.19;;;7.66;100.00
38718;BME280;24468;52.128;9.278;2023-12-20T01:50:14;100369.16;;;7.87;100.00
38718;BME280;24468;52.128;9.278;2023-12-20T01:52:42;100364.59;;;7.38;100.00
38718;BME280;24468;52.128;9.278;2023-12-20T01:55:08;100367.75;;;7.50;100.00
38718;BME280;24468;52.128;9.278;2023-12-20T01:57:40;100360.81;;;7.70;100.00
38718;BME280;24468;52.128;9.278;2023-12-20T02:00:07;100366.19;;;7.70;100.00
38718;BME280;24468;52.128;9.278;2023-12-20T02:02:36;100373.75;;;7.58;100.00
38718;BME280;24468;52.128;9.278;2023-12-20T02:05:05;100366.19;;;7.70;100.00
38718;BME280;24468;52.128;9.278;2023-12-20T02:07:31;100357.50;;;7.62;100.00
38718;BME280;24468;52.128;9.278;2023-12-20T02:09:56;100363.88;;;7.59;100.00
38718;BME280;24468;52.128;9.278;2023-12-20T02:12:22;100354.56;;;7.69;100.00
38718;BME280;24468;52.128;9.278;2023-12-20T02:14:48;100360.47;;;7.54;100.00
38718;BME280;24468;52.128;9.278;2023-12-20T02:17:15;100358.25;;;7.40;100.00
38718;BME280;24468;52.128;9.278;2023-12-20T02:19:41;100353.09;;;7.34;100.00
38718;BME280;24468;52.128;9.278;2023-12-20T02:22:12;100346.00;;;7.33;100.00
38718;BME280;24468;52.128;9.278;2023-12-20T02:24:41;100337.69;;;7.66;100.00
38718;BME280;24468;52.128;9.278;2023-12-20T02:27:07;100345.56;;;7.45;100.00
38718;BME280;24468;52.128;9.278;2023-12-20T02:29:34;100345.06;;;7.34;100.00
38718;BME280;24468;52.128;9.278;2023-12-20T02:32:01;100350.63;;;7.28;100.00
38718;BME280;24468;52.128;9.278;2023-12-20T02:34:27;100339.78;;;7.57;100.00
38718;BME280;24468;52.128;9.278;2023-12-20T02:36:52;100342.38;;;7.34;100.00
38718;BME280;24468;52.128;9.278;2023-12-20T02:39:19;100344.53;;;7.23;100.00
38718;BME280;24468;52.128;9.278;2023-12-20T02:41:45;100338.94;;;7.55;100.00
38718;BME280;24468;52.128;9.278;2023-12-20T02:44:11;100346.34;;;7.49;100.00
38718;BME280;24468;52.128;9.278;2023-12-20T02:46:36;100343.22;;;7.61;100.00
38718;BME280;24468;52.128;9.278;2023-12-20T02:49:02;100342.94;;;7.44;100.00
38718;BME280;24468;52.128;9.278;2023-12-20T02:51:27;100336.38;;;7.52;100.00
38718;BME280;24468;52.128;9.278;2023-12-20T02:53:53;100345.78;;;7.12;100.00
38718;BME280;24468;52.128;9.278;2023-12-20T02:56:19;100344.41;;;7.27;100.00
38718;BME280;24468;52.128;9.278;2023-12-20T02:58:44;100332.66;;;7.05;100.00
38718;BME280;24468;52.128;9.278;2023-12-20T03:01:10;100328.75;;;6.87;100.00
38718;BME280;24468;52.128;9.278;2023-12-20T03:03:35;100330.50;;;7.15;100.00
38718;BME280;24468;52.128;9.278;2023-12-20T03:06:01;100317.59;;;6.73;100.00
38718;BME280;24468;52.128;9.278;2023-12-20T03:08:26;100330.63;;;6.55;100.00
38718;BME280;24468;52.128;9.278;2023-12-20T03:10:52;100319.25;;;6.77;100.00
38718;BME280;24468;52.128;9.278;2023-12-20T03:13:19;100310.13;;;6.54;100.00
38718;BME280;24468;52.128;9.278;2023-12-20T03:15:45;100317.72;;;6.70;100.00
38718;BME280;24468;52.128;9.278;2023-12-20T03:18:11;100303.84;;;6.55;100.00
38718;BME280;24468;52.128;9.278;2023-12-20T03:20:36;100312.47;;;6.37;100.00
38718;BME280;24468;52.128;9.278;2023-12-20T03:23:02;100301.44;;;6.48;100.00
38718;BME280;24468;52.128;9.278;2023-12-20T03:25:27;100300.78;;;6.39;100.00
38718;BME280;24468;52.128;9.278;2023-12-20T03:27:53;100304.84;;;6.53;100.00
38718;BME280;24468;52.128;9.278;2023-12-20T03:30:21;100299.75;;;6.43;100.00
38718;BME280;24468;52.128;9.278;2023-12-20T03:32:47;100307.00;;;6.68;100.00
38718;BME280;24468;52.128;9.278;2023-12-20T03:35:13;100302.00;;;6.29;100.00
38718;BME280;24468;52.128;9.278;2023-12-20T03:37:38;100296.53;;;6.32;100.00
38718;BME280;24468;52.128;9.278;2023-12-20T03:40:04;100296.19;;;6.43;100.00
38718;BME280;24468;52.128;9.278;2023-12-20T03:42:30;100278.16;;;6.20;100.00
38718;BME280;24468;52.128;9.278;2023-12-20T03:44:56;100286.78;;;6.30;100.00
38718;BME280;24468;52.128;9.278;2023-12-20T03:47:21;100299.31;;;6.57;100.00
38718;BME280;24468;52.128;9.278;2023-12-20T03:49:47;100293.94;;;6.57;100.00
38718;BME280;24468;52.128;9.278;2023-12-20T03:52:13;100298.47;;;6.55;100.00
38718;BME280;24468;52.128;9.278;2023-12-20T03:54:38;100294.50;;;6.40;100.00
38718;BME280;24468;52.128;9.278;2023-12-20T03:57:04;100276.75;;;6.64;100.00
38718;BME280;24468;52.128;9.278;2023-12-20T03:59:34;100285.69;;;6.37;100.00
38718;BME280;24468;52.128;9.278;2023-12-20T04:02:00;100269.72;;;6.34;100.00
38718;BME280;24468;52.128;9.278;2023-12-20T04:04:25;100285.72;;;6.63;100.00
38718;BME280;24468;52.128;9.278;2023-12-20T04:06:51;100280.84;;;6.48;100.00
38718;BME280;24468;52.128;9.278;2023-12-20T04:09:16;100283.00;;;6.65;100.00
38718;BME280;24468;52.128;9.278;2023-12-20T04:11:42;100289.09;;;6.42;100.00
38718;BME280;24468;52.128;9.278;2023-12-20T04:14:07;100272.38;;;6.34;100.00
38718;BME280;24468;52.128;9.278;2023-12-20T04:16:33;100290.09;;;6.66;100.00
38718;BME280;24468;52.128;9.278;2023-12-20T04:18:58;100264.19;;;6.66;100.00
38718;BME280;24468;52.128;9.278;2023-12-20T04:21:24;100279.97;;;6.76;100.00
38718;BME280;24468;52.128;9.278;2023-12-20T04:23:50;100271.75;;;6.54;100.00
38718;BME280;24468;52.128;9.278;2023-12-20T04:26:15;100274.63;;;6.48;100.00
38718;BME280;24468;52.128;9.278;2023-12-20T04:28:41;100272.63;;;6.54;100.00
38718;BME280;24468;52.128;9.278;2023-12-20T04:31:06;100268.84;;;6.60;100.00
38718;BME280;24468;52.128;9.278;2023-12-20T04:33:32;100255.13;;;6.42;100.00
38718;BME280;24468;52.128;9.278;2023-12-20T04:35:58;100267.13;;;6.59;100.00
38718;BME280;24468;52.128;9.278;2023-12-20T04:38:23;100256.50;;;6.56;100.00
38718;BME280;24468;52.128;9.278;2023-12-20T04:40:49;100265.16;;;6.64;100.00
38718;BME280;24468;52.128;9.278;2023-12-20T04:43:14;100250.44;;;6.49;100.00
38718;BME280;24468;52.128;9.278;2023-12-20T04:45:40;100255.75;;;6.51;100.00
38718;BME280;24468;52.128;9.278;2023-12-20T04:48:06;100253.63;;;6.34;100.00
38718;BME280;24468;52.128;9.278;2023-12-20T04:50:31;100247.72;;;6.51;100.00
38718;BME280;24468;52.128;9.278;2023-12-20T04:52:57;100257.47;;;6.53;100.00
38718;BME280;24468;52.128;9.278;2023-12-20T04:55:23;100269.94;;;6.54;100.00
38718;BME280;24468;52.128;9.278;2023-12-20T04:57:48;100259.81;;;6.64;100.00
38718;BME280;24468;52.128;9.278;2023-12-20T05:00:14;100266.56;;;6.76;100.00
38718;BME280;24468;52.128;9.278;2023-12-20T05:02:40;100262.75;;;6.55;100.00
38718;BME280;24468;52.128;9.278;2023-12-20T05:05:06;100276.16;;;6.55;100.00
38718;BME280;24468;52.128;9.278;2023-12-20T05:07:32;100241.22;;;6.58;100.00
38718;BME280;24468;52.128;9.278;2023-12-20T05:09:58;100223.59;;;6.51;100.00
38718;BME280;24468;52.128;9.278;2023-12-20T05:12:24;100248.91;;;6.42;100.00
38718;BME280;24468;52.128;9.278;2023-12-20T05:14:51;100250.94;;;6.62;100.00
38718;BME280;24468;52.128;9.278;2023-12-20T05:17:16;100266.94;;;6.63;100.00
38718;BME280;24468;52.128;9.278;2023-12-20T05:19:42;100251.75;;;6.36;100.00
38718;BME280;24468;52.128;9.278;2023-12-20T05:22:08;100261.06;;;6.52;100.00
38718;BME280;24468;52.128;9.278;2023-12-20T05:24:33;100242.84;;;6.35;100.00
38718;BME280;24468;52.128;9.278;2023-12-20T05:26:58;100219.31;;;6.45;100.00
38718;BME280;24468;52.128;9.278;2023-12-20T05:29:24;100241.75;;;6.69;100.00
38718;BME280;24468;52.128;9.278;2023-12-20T05:31:50;100244.25;;;6.47;100.00
38718;BME280;24468;52.128;9.278;2023-12-20T05:34:15;100250.88;;;6.35;100.00
38718;BME280;24468;52.128;9.278;2023-12-20T05:36:41;100252.28;;;6.47;100.00
38718;BME280;24468;52.128;9.278;2023-12-20T05:39:06;100246.03;;;6.48;100.00
38718;BME280;24468;52.128;9.278;2023-12-20T05:41:33;100271.84;;;6.51;100.00
38718;BME280;24468;52.128;9.278;2023-12-20T05:43:59;100250.78;;;6.38;100.00
38718;BME280;24468;52.128;9.278;2023-12-20T05:46:25;100234.91;;;6.32;100.00
38718;BME280;24468;52.128;9.278;2023-12-20T05:48:51;100247.03;;;6.44;100.00
38718;BME280;24468;52.128;9.278;2023-12-20T05:51:17;100255.03;;;6.45;100.00
38718;BME280;24468;52.128;9.278;2023-12-20T05:53:44;100251.25;;;6.53;100.00
38718;BME280;24468;52.128;9.278;2023-12-20T05:56:10;100242.16;;;6.57;100.00
38718;BME280;24468;52.128;9.278;2023-12-20T05:58:36;100262.56;;;6.61;100.00
38718;BME280;24468;52.128;9.278;2023-12-20T06:01:05;100246.31;;;6.67;100.00
38718;BME280;24468;52.128;9.278;2023-12-20T06:03:31;100247.72;;;6.51;100.00
38718;BME280;24468;52.128;9.278;2023-12-20T06:05:57;100251.41;;;6.46;100.00
38718;BME280;24468;52.128;9.278;2023-12-20T06:08:22;100241.97;;;6.35;100.00
38718;BME280;24468;52.128;9.278;2023-12-20T06:10:48;100256.84;;;6.45;100.00
38718;BME280;24468;52.128;9.278;2023-12-20T06:13:14;100246.56;;;6.58;100.00
38718;BME280;24468;52.128;9.278;2023-12-20T06:15:40;100253.47;;;6.66;100.00
38718;BME280;24468;52.128;9.278;2023-12-20T06:18:06;100253.56;;;6.35;100.00
38718;BME280;24468;52.128;9.278;2023-12-20T06:20:32;100264.88;;;6.45;100.00
38718;BME280;24468;52.128;9.278;2023-12-20T06:22:58;100269.00;;;6.27;100.00
38718;BME280;24468;52.128;9.278;2023-12-20T06:25:24;100284.66;;;6.41;100.00
38718;BME280;24468;52.128;9.278;2023-12-20T06:27:49;100255.88;;;6.48;100.00
38718;BME280;24468;52.128;9.278;2023-12-20T06:30:16;100265.16;;;6.36;100.00
38718;BME280;24468;52.128;9.278;2023-12-20T06:32:42;100257.94;;;6.38;100.00
38718;BME280;24468;52.128;9.278;2023-12-20T06:35:08;100262.66;;;6.30;100.00
38718;BME280;24468;52.128;9.278;2023-12-20T06:37:34;100251.09;;;6.29;100.00
38718;BME280;24468;52.128;9.278;2023-12-20T06:40:00;100262.63;;;6.31;100.00
38718;BME280;24468;52.128;9.278;2023-12-20T06:42:26;100253.13;;;6.21;100.00
38718;BME280;24468;52.128;9.278;2023-12-20T06:44:52;100260.50;;;6.42;100.00
38718;BME280;24468;52.128;9.278;2023-12-20T06:47:17;100258.06;;;6.35;100.00
38718;BME280;24468;52.128;9.278;2023-12-20T06:49:43;100254.34;;;6.39;100.00
38718;BME280;24468;52.128;9.278;2023-12-20T06:52:09;100278.00;;;6.24;100.00
38718;BME280;24468;52.128;9.278;2023-12-20T06:54:34;100244.06;;;6.53;100.00
38718;BME280;24468;52.128;9.278;2023-12-20T06:57:00;100235.03;;;6.28;100.00
38718;BME280;24468;52.128;9.278;2023-12-20T06:59:27;100218.28;;;6.49;100.00
38718;BME280;24468;52.128;9.278;2023-12-20T07:01:53;100225.69;;;6.41;100.00
38718;BME280;24468;52.128;9.278;2023-12-20T07:04:19;100217.34;;;6.23;100.00
38718;BME280;24468;52.128;9.278;2023-12-20T07:06:47;100215.50;;;6.26;100.00
38718;BME280;24468;52.128;9.278;2023-12-20T07:09:14;100217.81;;;6.36;100.00
38718;BME280;24468;52.128;9.278;2023-12-20T07:11:39;100227.75;;;6.33;100.00
38718;BME280;24468;52.128;9.278;2023-12-20T07:14:05;100230.66;;;6.25;100.00
38718;BME280;24468;52.128;9.278;2023-12-20T07:16:30;100227.72;;;6.34;100.00
38718;BME280;24468;52.128;9.278;2023-12-20T07:18:56;100210.16;;;6.24;100.00
38718;BME280;24468;52.128;9.278;2023-12-20T07:21:22;100237.94;;;6.21;100.00
38718;BME280;24468;52.128;9.278;2023-12-20T07:23:48;100234.31;;;6.22;100.00
38718;BME280;24468;52.128;9.278;2023-12-20T07:26:13;100240.69;;;6.18;100.00
38718;BME280;24468;52.128;9.278;2023-12-20T07:28:39;100252.09;;;6.25;100.00
38718;BME280;24468;52.128;9.278;2023-12-20T07:31:05;100249.47;;;6.23;100.00
38718;BME280;24468;52.128;9.278;2023-12-20T07:33:31;100242.84;;;6.35;100.00
38718;BME280;24468;52.128;9.278;2023-12-20T07:35:57;100235.78;;;6.33;100.00
38718;BME280;24468;52.128;9.278;2023-12-20T07:38:22;100214.03;;;6.15;100.00
38718;BME280;24468;52.128;9.278;2023-12-20T07:40:48;100246.50;;;6.33;100.00
38718;BME280;24468;52.128;9.278;2023-12-20T07:43:13;100220.84;;;6.26;100.00
38718;BME280;24468;52.128;9.278;2023-12-20T07:45:39;100228.63;;;6.33;100.00
38718;BME280;24468;52.128;9.278;2023-12-20T07:48:06;100247.63;;;6.26;100.00
38718;BME280;24468;52.128;9.278;2023-12-20T07:50:32;100223.44;;;6.29;100.00
38718;BME280;24468;52.128;9.278;2023-12-20T07:52:58;100218.88;;;6.31;100.00
38718;BME280;24468;52.128;9.278;2023-12-20T07:55:25;100215.38;;;6.29;100.00
38718;BME280;24468;52.128;9.278;2023-12-20T07:57:50;100210.03;;;6.29;100.00
38718;BME280;24468;52.128;9.278;2023-12-20T08:00:17;100231.88;;;6.43;100.00
38718;BME280;24468;52.128;9.278;2023-12-20T08:02:42;100233.59;;;6.45;100.00
38718;BME280;24468;52.128;9.278;2023-12-20T08:05:08;100235.88;;;6.30;100.00
38718;BME280;24468;52.128;9.278;2023-12-20T08:07:34;100238.63;;;6.28;100.00
38718;BME280;24468;52.128;9.278;2023-12-20T08:09:59;100246.41;;;6.36;100.00
38718;BME280;24468;52.128;9.278;2023-12-20T08:12:25;100235.94;;;6.28;100.00
38718;BME280;24468;52.128;9.278;2023-12-20T08:14:53;100241.66;;;6.44;100.00
38718;BME280;24468;52.128;9.278;2023-12-20T08:17:19;100226.25;;;6.24;100.00
38718;BME280;24468;52.128;9.278;2023-12-20T08:19:45;100250.44;;;6.21;100.00
38718;BME280;24468;52.128;9.278;2023-12-20T08:22:11;100244.25;;;6.19;100.00
38718;BME280;24468;52.128;9.278;2023-12-20T08:24:36;100239.53;;;6.27;100.00
38718;BME280;24468;52.128;9.278;2023-12-20T08:27:02;100229.59;;;6.31;100.00
38718;BME280;24468;52.128;9.278;2023-12-20T08:29:28;100231.88;;;6.43;100.00
38718;BME280;24468;52.128;9.278;2023-12-20T08:31:55;100211.78;;;6.30;100.00
38718;BME280;24468;52.128;9.278;2023-12-20T08:34:21;100241.09;;;6.34;100.00
38718;BME280;24468;52.128;9.278;2023-12-20T08:36:47;100217.69;;;6.67;100.00
38718;BME280;24468;52.128;9.278;2023-12-20T08:39:12;100218.44;;;6.44;100.00
38718;BME280;24468;52.128;9.278;2023-12-20T08:41:38;100199.31;;;6.55;100.00
38718;BME280;24468;52.128;9.278;2023-12-20T08:44:04;100220.69;;;6.58;100.00
38718;BME280;24468;52.128;9.278;2023-12-20T08:46:29;100208.28;;;6.54;100.00
38718;BME280;24468;52.128;9.278;2023-12-20T08:48:55;100183.69;;;6.68;100.00
38718;BME280;24468;52.128;9.278;2023-12-20T08:51:20;100188.66;;;6.54;100.00
38718;BME280;24468;52.128;9.278;2023-12-20T08:53:48;100202.94;;;6.54;100.00
38718;BME280;24468;52.128;9.278;2023-12-20T08:56:14;100192.81;;;6.62;100.00
38718;BME280;24468;52.128;9.278;2023-12-20T08:58:40;100195.31;;;6.42;100.00
38718;BME280;24468;52.128;9.278;2023-12-20T09:01:06;100201.53;;;6.42;100.00
38718;BME280;24468;52.128;9.278;2023-12-20T09:03:32;100205.22;;;6.38;100.00
38718;BME280;24468;52.128;9.278;2023-12-20T09:05:58;100181.63;;;6.50;100.00
38718;BME280;24468;52.128;9.278;2023-12-20T09:08:23;100174.28;;;6.56;100.00
38718;BME280;24468;52.128;9.278;2023-12-20T09:10:49;100180.72;;;6.51;100.00
38718;BME280;24468;52.128;9.278;2023-12-20T09:13:15;100170.84;;;6.53;100.00
38718;BME280;24468;52.128;9.278;2023-12-20T09:15:40;100168.41;;;6.45;100.00
38718;BME280;24468;52.128;9.278;2023-12-20T09:18:06;100141.63;;;6.45;100.00
38718;BME280;24468;52.128;9.278;2023-12-20T09:20:31;100162.06;;;6.48;100.00
38718;BME280;24468;52.128;9.278;2023-12-20T09:22:58;100137.66;;;6.55;100.00
38718;BME280;24468;52.128;9.278;2023-12-20T09:25:24;100183.69;;;6.68;100.00
38718;BME280;24468;52.128;9.278;2023-12-20T09:27:49;100156.53;;;6.52;100.00
38718;BME280;24468;52.128;9.278;2023-12-20T09:30:15;100139.44;;;6.56;100.00
38718;BME280;24468;52.128;9.278;2023-12-20T09:32:40;100137.59;;;6.58;100.00
38718;BME280;24468;52.128;9.278;2023-12-20T09:35:06;100159.84;;;6.60;100.00
38718;BME280;24468;52.128;9.278;2023-12-20T09:37:33;100173.41;;;6.56;100.00
38718;BME280;24468;52.128;9.278;2023-12-20T09:39:59;100141.34;;;6.53;100.00
38718;BME280;24468;52.128;9.278;2023-12-20T09:42:48;100155.56;;;6.55;100.00
38718;BME280;24468;52.128;9.278;2023-12-20T09:45:15;100136.00;;;6.53;100.00
38718;BME280;24468;52.128;9.278;2023-12-20T09:47:43;100158.97;;;6.60;100.00
38718;BME280;24468;52.128;9.278;2023-12-20T09:50:09;100126.66;;;6.38;100.00
38718;BME280;24468;52.128;9.278;2023-12-20T09:52:36;100135.31;;;6.46;100.00
38718;BME280;24468;52.128;9.278;2023-12-20T09:55:04;100164.31;;;6.60;100.00
38718;BME280;24468;52.128;9.278;2023-12-20T09:57:33;100145.88;;;6.51;100.00
38718;BME280;24468;52.128;9.278;2023-12-20T09:59:59;100136.00;;;6.53;100.00
38718;BME280;24468;52.128;9.278;2023-12-20T10:02:25;100130.69;;;6.51;100.00
38718;BME280;24468;52.128;9.278;2023-12-20T10:04:55;100181.69;;;6.48;100.00
38718;BME280;24468;52.128;9.278;2023-12-20T10:07:21;100150.56;;;6.71;100.00
38718;BME280;24468;52.128;9.278;2023-12-20T10:09:47;100147.91;;;6.69;100.00
38718;BME280;24468;52.128;9.278;2023-12-20T10:12:13;100149.84;;;6.65;100.00
38718;BME280;24468;52.128;9.278;2023-12-20T10:14:39;100167.28;;;6.77;100.00
38718;BME280;24468;52.128;9.278;2023-12-20T10:17:05;100138.09;;;6.70;100.00
38718;BME280;24468;52.128;9.278;2023-12-20T10:19:32;100154.81;;;6.76;100.00
38718;BME280;24468;52.128;9.278;2023-12-20T10:22:05;100157.84;;;6.92;100.00
38718;BME280;24468;52.128;9.278;2023-12-20T10:24:31;100130.69;;;7.01;100.00
38718;BME280;24468;52.128;9.278;2023-12-20T10:27:03;100125.31;;;7.01;100.00
38718;BME280;24468;52.128;9.278;2023-12-20T10:29:36;100134.31;;;7.00;100.00
38718;BME280;24468;52.128;9.278;2023-12-20T10:32:25;100126.41;;;6.96;100.00
38718;BME280;24468;52.128;9.278;2023-12-20T10:34:53;100119.09;;;7.01;100.00
38718;BME280;24468;52.128;9.278;2023-12-20T10:37:19;100127.41;;;6.93;100.00
38718;BME280;24468;52.128;9.278;2023-12-20T10:39:51;100118.06;;;7.05;100.00
38718;BME280;24468;52.128;9.278;2023-12-20T10:42:20;100125.56;;;6.95;100.00
38718;BME280;24468;52.128;9.278;2023-12-20T10:44:47;100064.66;;;6.74;100.00
38718;BME280;24468;52.128;9.278;2023-12-20T10:47:13;100102.63;;;6.86;100.00
38718;BME280;24468;52.128;9.278;2023-12-20T10:49:39;100094.50;;;6.88;100.00
38718;BME280;24468;52.128;9.278;2023-12-20T10:52:06;100112.25;;;6.92;100.00
38718;BME280;24468;52.128;9.278;2023-12-20T10:54:34;100116.41;;;6.76;100.00
38718;BME280;24468;52.128;9.278;2023-12-20T10:57:00;100113.78;;;6.74;100.00
38718;BME280;24468;52.128;9.278;2023-12-20T10:59:27;100120.66;;;6.83;100.00
38718;BME280;24468;52.128;9.278;2023-12-20T11:01:55;100107.72;;;6.94;100.00
38718;BME280;24468;52.128;9.278;2023-12-20T11:04:36;100072.38;;;6.83;100.00
38718;BME280;24468;52.128;9.278;2023-12-20T11:07:25;100100.31;;;7.01;100.00
38718;BME280;24468;52.128;9.278;2023-12-20T11:10:16;100097.38;;;6.83;100.00
38718;BME280;24468;52.128;9.278;2023-12-20T11:12:52;100099.19;;;6.83;100.00
38718;BME280;24468;52.128;9.278;2023-12-20T11:15:20;100101.06;;;6.81;100.00
38718;BME280;24468;52.128;9.278;2023-12-20T11:17:46;100104.22;;;6.92;100.00
38718;BME280;24468;52.128;9.278;2023-12-20T11:20:12;100100.50;;;7.20;100.00
38718;BME280;24468;52.128;9.278;2023-12-20T11:22:38;100104.06;;;6.97;100.00
38718;BME280;24468;52.128;9.278;2023-12-20T11:25:11;100122.72;;;7.00;100.00
38718;BME280;24468;52.128;9.278;2023-12-20T11:28:12;100091.56;;;6.96;100.00
38718;BME280;24468;52.128;9.278;2023-12-20T11:30:49;100080.78;;;6.97;100.00
38718;BME280;24468;52.128;9.278;2023-12-20T11:33:16;100059.63;;;7.13;100.00
38718;BME280;24468;52.128;9.278;2023-12-20T11:35:45;100113.91;;;7.20;100.00
38718;BME280;24468;52.128;9.278;2023-12-20T11:38:12;100096.41;;;7.09;100.00
38718;BME280;24468;52.128;9.278;2023-12-20T11:40:38;100090.28;;;7.06;100.00
38718;BME280;24468;52.128;9.278;2023-12-20T11:43:04;100099.56;;;6.97;100.00
38718;BME280;24468;52.128;9.278;2023-12-20T11:45:30;100082.16;;;7.07;100.00
38718;BME280;24468;52.128;9.278;2023-12-20T11:47:57;100112.78;;;7.02;100.00
38718;BME280;24468;52.128;9.278;2023-12-20T11:50:24;100080.00;;;7.19;100.00
38718;BME280;24468;52.128;9.278;2023-12-20T11:52:51;100091.22;;;7.28;100.00
38718;BME280;24468;52.128;9.278;2023-12-20T11:55:17;100075.94;;;7.30;100.00
38718;BME280;24468;52.128;9.278;2023-12-20T11:57:43;100076.69;;;7.57;100.00
38718;BME280;24468;52.128;9.278;2023-12-20T12:00:10;100081.59;;;7.23;100.00
38718;BME280;24468;52.128;9.278;2023-12-20T12:02:36;100105.63;;;7.26;100.00
38718;BME280;24468;52.128;9.278;2023-12-20T12:05:02;100055.06;;;7.39;100.00
38718;BME280;24468;52.128;9.278;2023-12-20T12:07:30;100068.03;;;7.27;100.00
38718;BME280;24468;52.128;9.278;2023-12-20T12:09:56;100064.09;;;7.36;100.00
38718;BME280;24468;52.128;9.278;2023-12-20T12:12:21;100076.81;;;7.31;100.00
38718;BME280;24468;52.128;9.278;2023-12-20T12:14:49;100063.94;;;7.41;100.00
38718;BME280;24468;52.128;9.278;2023-12-20T12:17:15;100066.91;;;7.33;100.00
38718;BME280;24468;52.128;9.278;2023-12-20T12:19:41;100060.13;;;7.46;100.00
38718;BME280;24468;52.128;9.278;2023-12-20T12:22:15;100096.38;;;7.11;100.00
38718;BME280;24468;52.128;9.278;2023-12-20T12:24:46;100058.78;;;7.34;100.00
38718;BME280;24468;52.128;9.278;2023-12-20T12:27:13;100050.94;;;7.30;100.00
38718;BME280;24468;52.128;9.278;2023-12-20T12:29:39;100068.94;;;7.26;100.00
38718;BME280;24468;52.128;9.278;2023-12-20T12:32:09;100123.69;;;6.97;100.00
38718;BME280;24468;52.128;9.278;2023-12-20T12:34:36;100143.34;;;5.32;100.00
38718;BME280;24468;52.128;9.278;2023-12-20T12:37:03;100127.97;;;5.09;100.00
38718;BME280;24468;52.128;9.278;2023-12-20T12:39:30;100126.81;;;4.86;100.00
38718;BME280;24468;52.128;9.278;2023-12-20T12:41:56;100107.06;;;4.92;100.00
38718;BME280;24468;52.128;9.278;2023-12-20T12:44:22;100118.34;;;4.71;100.00
38718;BME280;24468;52.128;9.278;2023-12-20T12:46:50;100105.56;;;4.82;100.00